.
WxDataArchive / Data Records for 2006-06-08
2006-06-07 June 2006 2006-06-09

Data Records for Thursday, 08 June 2006

Time	Temp	Chill	HIndex	Humid	Dewpt	 Wind 	HiWind	WindDir	Rain 	Barom 
-----	----	-----	------	-----	-----	------	------	-------	-----	----- 
00:00	67.1	67.1	67.1	75	58.9	0	1	45	0.00	29.822 
00:05	67.1	67.1	67.1	74	58.5	0	1	45	0.00	29.822 
00:10	66.9	66.9	66.9	75	58.7	0	1	45	0.00	29.822 
00:15	66.8	66.8	66.8	75	58.6	0	0	---	0.00	29.817 
00:20	66.4	66.4	66.4	76	58.6	0	1	45	0.00	29.817 
00:25	66.3	66.3	66.3	76	58.5	0	1	45	0.00	29.817 
00:30	66.1	66.1	66.1	77	58.7	0	0	---	0.00	29.818 
00:35	66.0	66.0	66.0	77	58.6	0	1	45	0.00	29.818 
00:40	65.6	65.6	65.6	78	58.5	0	1	45	0.00	29.818 
00:45	65.5	65.5	65.5	78	58.5	0	1	45	0.00	29.823 
00:50	65.5	65.5	65.5	78	58.5	0	1	45	0.00	29.823 
00:55	65.5	65.5	65.5	78	58.5	0	1	45	0.00	29.823 
01:00	65.5	65.5	65.5	79	58.8	0	1	45	0.00	29.821 
01:05	65.3	65.3	65.3	79	58.6	0	1	22	0.00	29.821 
01:10	65.3	65.3	65.3	79	58.6	0	1	22	0.00	29.821 
01:15	65.2	65.2	65.2	79	58.5	0	1	0	0.00	29.822 
01:20	65.0	65.0	65.0	79	58.3	0	2	0	0.00	29.822 
01:25	64.7	64.7	64.7	79	58.0	0	2	0	0.00	29.822 
01:30	64.5	64.5	64.5	80	58.2	0	2	0	0.00	29.821 
01:35	64.3	64.3	64.3	81	58.3	0	1	0	0.00	29.821 
01:40	64.2	64.2	64.2	81	58.2	0	1	0	0.00	29.821 
01:45	64.0	64.0	64.0	81	58.0	0	1	0	0.00	29.821 
01:50	63.9	63.9	63.9	82	58.3	0	2	0	0.00	29.821 
01:55	63.7	63.7	63.7	82	58.1	0	1	0	0.00	29.821 
02:00	63.5	63.5	63.5	83	58.2	0	1	0	0.00	29.821 
02:05	63.4	63.4	63.4	83	58.1	0	1	0	0.00	29.821 
02:10	63.2	63.2	63.2	83	57.9	0	1	0	0.00	29.821 
02:15	63.1	63.1	63.1	84	58.2	0	2	338	0.00	29.817 
02:20	62.9	62.9	62.9	84	58.0	0	1	338	0.00	29.817 
02:25	62.7	62.7	62.7	84	57.8	0	1	338	0.00	29.817 
02:30	62.6	62.6	62.6	84	57.7	0	1	338	0.00	29.819 
02:35	62.4	62.4	62.4	85	57.8	0	1	338	0.00	29.819 
02:40	62.4	62.4	62.4	85	57.8	0	1	338	0.00	29.819 
02:45	62.3	62.3	62.3	85	57.7	0	1	338	0.00	29.820 
02:50	62.1	62.1	62.1	86	57.9	0	1	338	0.00	29.820 
02:55	62.0	62.0	62.0	86	57.8	0	1	338	0.00	29.820 
03:00	62.0	62.0	62.0	86	57.8	0	0	---	0.00	29.810 
03:05	61.8	61.8	61.8	87	57.9	0	1	338	0.00	29.810 
03:10	61.6	61.6	61.6	87	57.7	0	1	338	0.00	29.810 
03:15	61.6	61.6	61.6	87	57.7	0	2	338	0.00	29.819 
03:20	61.5	61.5	61.5	88	57.9	0	1	338	0.00	29.819 
03:25	61.3	61.3	61.3	88	57.7	0	2	338	0.00	29.819 
03:30	61.3	61.3	61.3	88	57.7	0	1	315	0.00	29.819 
03:35	61.2	61.2	61.2	88	57.6	0	1	315	0.00	29.819 
03:40	61.0	61.0	61.0	89	57.7	0	1	315	0.00	29.819 
03:45	61.0	61.0	61.0	89	57.7	0	1	315	0.00	29.816 
03:50	60.9	60.9	60.9	89	57.6	0	1	315	0.00	29.816 
03:55	60.9	60.9	60.9	90	57.9	0	1	315	0.00	29.816 
04:00	60.7	60.7	60.7	90	57.7	0	1	315	0.00	29.816 
04:05	60.7	60.7	60.7	90	57.7	0	0	---	0.00	29.816 
04:10	60.5	60.5	60.5	90	57.5	0	1	315	0.00	29.816 
04:15	60.5	60.5	60.5	91	57.9	0	1	315	0.00	29.817 
04:20	60.4	60.4	60.4	91	57.8	0	0	---	0.00	29.817 
04:25	60.4	60.4	60.4	91	57.8	0	0	---	0.00	29.817 
04:30	60.2	60.2	60.2	91	57.6	0	1	315	0.00	29.816 
04:35	60.1	60.1	60.1	91	57.5	0	0	---	0.00	29.816 
04:40	59.9	59.9	59.9	91	57.3	0	0	---	0.00	29.816 
04:45	59.9	59.9	59.9	91	57.3	0	0	---	0.00	29.814 
04:50	59.8	59.8	59.8	92	57.5	0	0	---	0.00	29.814 
04:55	59.8	59.8	59.8	92	57.5	0	0	---	0.00	29.814 
05:00	59.6	59.6	59.6	92	57.3	0	0	---	0.00	29.812 
05:05	59.6	59.6	59.6	92	57.3	0	0	---	0.00	29.812 
05:10	59.6	59.6	59.6	92	57.3	0	0	---	0.00	29.812 
05:15	59.5	59.5	59.5	92	57.2	0	0	---	0.00	29.822 
05:20	59.5	59.5	59.5	93	57.5	0	0	---	0.00	29.822 
05:25	59.5	59.5	59.5	93	57.5	0	1	315	0.00	29.822 
05:30	59.5	59.5	59.5	93	57.5	0	1	315	0.00	29.823 
05:35	59.3	59.3	59.3	93	57.3	0	0	---	0.00	29.823 
05:40	59.3	59.3	59.3	93	57.3	0	0	---	0.00	29.823 
05:45	59.3	59.3	59.3	93	57.3	0	0	---	0.00	29.825 
05:50	59.3	59.3	59.3	93	57.3	0	0	---	0.00	29.825 
05:55	59.3	59.3	59.3	93	57.3	0	0	---	0.00	29.825 
06:00	59.2	59.2	59.2	93	57.2	0	0	---	0.00	29.827 
06:05	59.2	59.2	59.2	93	57.2	0	0	---	0.00	29.827 
06:10	59.0	59.0	59.0	94	57.3	0	0	---	0.00	29.827 
06:15	59.0	59.0	59.0	94	57.3	0	0	---	0.00	29.841 
06:20	59.2	59.2	59.2	94	57.5	0	0	---	0.00	29.841 
06:25	59.3	59.3	59.3	94	57.6	0	0	---	0.00	29.841 
06:30	59.5	59.5	59.5	94	57.8	0	0	---	0.00	29.854 
06:35	59.8	59.8	59.8	94	58.1	0	0	---	0.00	29.854 
06:40	59.9	59.9	59.9	94	58.2	0	1	315	0.00	29.854 
06:45	60.2	60.2	60.2	94	58.5	0	1	315	0.00	29.858 
06:50	60.4	60.4	60.4	94	58.7	0	0	---	0.00	29.858 
06:55	60.5	60.5	60.5	94	58.8	0	1	315	0.00	29.858 
07:00	60.7	60.7	60.7	94	59.0	0	2	315	0.00	29.858 
07:05	60.7	60.7	60.7	94	59.0	0	2	292	0.00	29.858 
07:10	60.9	60.9	60.9	94	59.2	0	1	292	0.00	29.858 
07:15	60.9	60.9	60.9	94	59.2	0	1	292	0.00	29.871 
07:20	60.9	60.9	60.9	93	58.9	0	1	292	0.00	29.871 
07:25	60.9	60.9	60.9	93	58.9	0	1	292	0.00	29.871 
07:30	60.9	60.9	60.9	93	58.9	0	2	292	0.00	29.874 
07:35	61.0	61.0	61.0	93	59.0	0	1	292	0.00	29.874 
07:40	61.2	61.2	61.2	93	59.2	0	1	292	0.00	29.874 
07:45	61.2	61.2	61.2	93	59.2	0	2	292	0.00	29.875 
07:50	61.2	61.2	61.2	93	59.2	0	2	292	0.00	29.875 
07:55	61.2	61.2	61.2	93	59.2	0	2	292	0.00	29.875 
08:00	61.3	61.3	61.3	93	59.3	0	1	292	0.00	29.884 
08:05	61.3	61.3	61.3	93	59.3	0	2	292	0.00	29.884 
08:10	61.5	61.5	61.5	93	59.5	0	1	292	0.00	29.884 
08:15	61.6	61.6	61.6	93	59.6	0	2	292	0.00	29.886 
08:20	61.8	61.8	61.8	93	59.8	0	2	292	0.00	29.886 
08:25	62.0	62.0	62.0	93	59.9	0	2	315	0.00	29.886 
08:30	62.1	62.1	62.1	94	60.3	0	1	315	0.00	29.889 
08:35	62.3	62.3	62.3	94	60.5	0	1	315	0.00	29.889 
08:40	62.4	62.4	62.4	94	60.6	0	1	315	0.00	29.889 
08:45	62.7	62.7	62.7	93	60.6	0	2	315	0.00	29.889 
08:50	62.9	62.9	62.9	93	60.8	0	1	315	0.00	29.889 
08:55	63.2	63.2	63.2	93	61.1	0	1	315	0.00	29.889 
09:00	63.4	63.4	63.4	92	61.0	0	3	315	0.00	29.898 
09:05	63.7	63.7	63.7	92	61.3	0	1	270	0.00	29.898 
09:10	63.9	63.9	63.9	91	61.2	0	2	270	0.00	29.898 
09:15	64.0	64.0	64.0	90	61.0	0	1	270	0.00	29.904 
09:20	64.2	64.2	64.2	90	61.2	0	1	270	0.00	29.904 
09:25	64.2	64.2	64.2	89	60.9	0	2	292	0.00	29.904 
09:30	64.2	64.2	64.2	89	60.9	0	2	315	0.00	29.907 
09:35	64.2	64.2	64.2	89	60.9	1	2	315	0.00	29.907 
09:40	64.2	64.2	64.2	89	60.9	0	1	315	0.00	29.907 
09:45	64.5	64.5	64.5	89	61.2	0	2	315	0.00	29.908 
09:50	64.7	64.7	64.7	88	61.1	1	3	315	0.00	29.908 
09:55	65.2	65.2	65.2	88	61.6	0	2	248	0.00	29.908 
10:00	65.5	65.5	65.5	87	61.5	1	2	292	0.00	29.911 
10:05	65.8	65.8	65.8	86	61.5	1	3	292	0.00	29.911 
10:10	66.0	66.0	66.0	86	61.7	1	2	292	0.00	29.911 
10:15	66.3	66.3	66.3	85	61.6	1	3	292	0.00	29.920 
10:20	66.4	66.4	66.4	84	61.4	1	3	270	0.00	29.920 
10:25	66.8	66.8	66.8	84	61.8	1	3	270	0.00	29.920 
10:30	67.1	67.1	67.1	83	61.8	0	2	270	0.00	29.918 
10:35	66.9	66.9	66.9	83	61.6	1	3	0	0.00	29.918 
10:40	66.9	66.9	66.9	84	61.9	1	3	292	0.00	29.918 
10:45	67.1	67.1	67.1	83	61.8	1	4	315	0.00	29.925 
10:50	67.1	67.1	67.1	83	61.8	0	2	315	0.00	29.925 
10:55	67.3	67.3	67.3	83	62.0	0	2	292	0.00	29.925 
11:00	67.6	67.6	67.6	84	62.6	1	3	292	0.00	29.925 
11:05	67.9	67.9	67.9	81	61.8	1	3	292	0.00	29.925 
11:10	68.1	68.1	68.1	81	62.0	1	3	292	0.00	29.925 
11:15	68.1	68.1	68.1	80	61.7	1	3	315	0.00	29.928 
11:20	68.3	68.3	68.3	81	62.2	1	3	315	0.00	29.928 
11:25	68.1	68.1	68.1	82	62.4	1	4	292	0.00	29.928 
11:30	68.3	68.3	68.3	81	62.2	0	3	0	0.00	29.927 
11:35	68.6	68.6	68.6	81	62.5	1	3	22	0.00	29.927 
11:40	69.1	69.1	69.1	80	62.7	0	2	45	0.00	29.927 
11:45	69.6	69.6	69.6	81	63.5	0	1	45	0.00	29.923 
11:50	69.9	69.9	69.9	78	62.7	1	3	22	0.00	29.923 
11:55	70.3	70.3	70.3	76	62.4	2	4	270	0.00	29.923 
12:00	70.4	70.4	70.4	77	62.8	2	4	270	0.00	29.923 
12:05	70.8	70.8	70.8	77	63.2	1	3	45	0.00	29.923 
12:10	71.5	71.5	71.5	76	63.5	1	4	338	0.00	29.923 
12:15	71.8	71.8	71.8	73	62.7	1	3	0	0.00	29.924 
12:20	72.0	72.0	72.0	73	62.9	1	2	0	0.00	29.924 
12:25	72.7	72.7	72.7	72	63.1	1	5	270	0.00	29.924 
12:30	72.8	72.8	72.8	69	62.0	1	3	0	0.00	29.920 
12:35	73.0	73.0	73.0	72	63.4	1	4	338	0.00	29.920 
12:40	73.5	73.5	73.5	71	63.5	1	4	270	0.00	29.920 
12:45	73.3	73.3	73.3	69	62.5	1	5	68	0.00	29.915 
12:50	73.3	73.3	73.3	69	62.5	1	3	292	0.00	29.915 
12:55	73.7	73.7	73.7	65	61.2	1	3	0	0.00	29.915 
13:00	74.0	74.0	74.0	66	61.9	1	3	180	0.00	29.914 
13:05	74.0	74.0	74.0	68	62.8	1	3	292	0.00	29.914 
13:10	74.2	74.2	74.2	65	61.7	1	4	292	0.00	29.914 
13:15	74.0	74.0	74.0	64	61.0	1	5	22	0.00	29.913 
13:20	74.2	74.2	74.2	66	62.1	0	2	22	0.00	29.913 
13:25	73.9	73.9	73.9	66	61.8	0	2	0	0.00	29.913 
13:30	74.4	74.4	74.4	67	62.7	0	2	68	0.00	29.914 
13:35	75.4	75.4	77.6	60	60.5	1	4	270	0.00	29.914 
13:40	75.8	75.8	77.7	65	63.2	1	3	292	0.00	29.914 
13:45	76.0	76.0	78.0	60	61.1	2	5	270	0.00	29.909 
13:50	76.3	76.3	78.2	61	61.8	1	4	292	0.00	29.909 
13:55	76.7	76.7	78.5	59	61.3	1	3	248	0.00	29.909 
14:00	77.0	77.0	78.7	57	60.6	1	5	0	0.00	29.911 
14:05	77.0	77.0	78.7	57	60.6	1	3	22	0.00	29.911 
14:10	76.8	76.8	78.6	58	60.9	1	2	0	0.00	29.911 
14:15	76.7	76.7	78.5	57	60.3	1	4	270	0.00	29.910 
14:20	77.2	77.2	78.9	59	61.7	1	5	315	0.00	29.910 
14:25	77.4	77.4	79.1	58	61.4	1	3	292	0.00	29.910 
14:30	77.7	77.7	79.3	58	61.7	1	7	22	0.00	29.901 
14:35	77.9	77.9	79.4	56	60.9	1	4	270	0.00	29.901 
14:40	77.2	77.2	78.9	56	60.3	1	3	248	0.00	29.901 
14:45	76.1	76.1	78.1	57	59.7	1	3	292	0.00	29.900 
14:50	76.7	76.7	78.5	58	60.8	1	3	292	0.00	29.900 
14:55	77.6	77.6	79.2	58	61.6	1	3	270	0.00	29.900 
15:00	77.6	77.6	79.1	54	59.6	1	4	0	0.00	29.894 
15:05	77.7	77.7	79.2	54	59.7	1	4	270	0.00	29.894 
15:10	78.1	78.1	79.5	55	60.6	1	4	22	0.00	29.894 
15:15	78.5	78.5	79.9	55	61.0	1	5	22	0.00	29.889 
15:20	78.5	78.5	79.7	52	59.4	1	2	292	0.00	29.889 
15:25	78.5	78.5	79.8	53	59.9	0	2	315	0.00	29.889 
15:30	78.3	78.3	79.6	52	59.2	1	3	292	0.00	29.885 
15:35	77.7	77.7	79.2	55	60.2	1	3	315	0.00	29.885 
15:40	77.4	77.4	78.9	53	58.9	0	2	292	0.00	29.885 
15:45	77.9	77.9	79.3	54	59.9	1	3	292	0.00	29.885 
15:50	78.5	78.5	79.7	52	59.4	2	5	315	0.00	29.885 
15:55	78.8	78.8	79.9	51	59.1	2	6	270	0.00	29.885 
16:00	79.0	79.0	80.0	51	59.3	2	3	248	0.00	29.881 
16:05	79.4	79.4	80.6	54	61.3	1	2	292	0.00	29.881 
16:10	79.2	79.2	80.2	51	59.5	0	3	22	0.00	29.881 
16:15	79.0	79.0	80.1	52	59.8	2	3	315	0.00	29.880 
16:20	79.4	79.4	80.4	51	59.7	2	4	292	0.00	29.880 
16:25	79.2	79.2	80.2	51	59.5	1	3	315	0.00	29.880 
16:30	79.6	79.6	80.7	53	60.9	2	3	248	0.00	29.874 
16:35	79.8	79.8	81.0	54	61.7	1	3	270	0.00	29.874 
16:40	79.6	79.6	80.6	52	60.4	1	3	315	0.00	29.874 
16:45	79.6	79.6	80.6	52	60.4	1	3	292	0.00	29.869 
16:50	79.6	79.6	80.5	50	59.3	1	3	315	0.00	29.869 
16:55	79.0	79.0	80.0	51	59.3	1	4	270	0.00	29.869 
17:00	79.0	79.0	80.1	52	59.8	1	4	338	0.00	29.868 
17:05	78.6	78.6	79.8	53	60.0	0	2	292	0.00	29.868 
17:10	78.1	78.1	79.5	54	60.1	1	3	315	0.00	29.868 
17:15	78.5	78.5	79.7	52	59.4	1	3	292	0.00	29.869 
17:20	78.8	78.8	80.0	53	60.2	1	3	315	0.00	29.869 
17:25	79.6	79.6	80.6	52	60.4	1	5	248	0.00	29.869 
17:30	79.6	79.6	80.5	50	59.3	1	3	315	0.00	29.869 
17:35	78.5	78.5	79.6	50	58.3	1	3	315	0.00	29.869 
17:40	78.6	78.6	79.8	52	59.5	1	4	315	0.00	29.869 
17:45	79.2	79.2	80.4	53	60.6	1	4	292	0.00	29.868 
17:50	79.2	79.2	80.3	52	60.0	1	5	338	0.00	29.868 
17:55	79.2	79.2	80.3	52	60.0	1	4	315	0.00	29.868 
18:00	79.0	79.0	80.0	50	58.7	1	3	338	0.00	29.867 
18:05	79.0	79.0	80.0	50	58.7	2	6	338	0.00	29.867 
18:10	78.5	78.5	79.6	50	58.3	2	4	315	0.00	29.867 
18:15	78.5	78.5	79.6	50	58.3	1	3	292	0.00	29.864 
18:20	78.8	78.8	79.8	50	58.6	1	3	270	0.00	29.864 
18:25	78.6	78.6	79.7	50	58.4	2	4	315	0.00	29.864 
18:30	78.6	78.6	79.7	51	58.9	1	3	270	0.00	29.861 
18:35	78.6	78.6	79.9	54	60.5	0	2	315	0.00	29.861 
18:40	78.6	78.6	79.9	54	60.5	1	3	22	0.00	29.861 
18:45	78.5	78.5	79.6	50	58.3	1	4	270	0.00	29.857 
18:50	78.3	78.3	79.5	51	58.7	1	4	270	0.00	29.857 
18:55	78.3	78.3	79.4	50	58.1	2	5	292	0.00	29.857 
19:00	78.1	78.1	79.4	52	59.0	1	3	248	0.00	29.854 
19:05	78.1	78.1	79.3	50	57.9	1	5	315	0.00	29.854 
19:10	77.9	77.9	79.2	50	57.7	1	3	292	0.00	29.854 
19:15	77.7	77.7	79.1	51	58.1	2	4	270	0.00	29.862 
19:20	77.7	77.7	79.0	50	57.6	1	4	292	0.00	29.862 
19:25	77.7	77.7	79.0	49	57.0	1	5	292	0.00	29.862 
19:30	77.6	77.6	79.0	50	57.5	1	4	315	0.00	29.866 
19:35	77.6	77.6	78.9	48	56.3	1	5	248	0.00	29.866 
19:40	77.6	77.6	78.9	48	56.3	1	4	338	0.00	29.866 
19:45	77.4	77.4	78.8	49	56.7	0	2	22	0.00	29.864 
19:50	77.4	77.4	78.8	48	56.1	1	4	270	0.00	29.864 
19:55	77.2	77.2	78.7	48	56.0	1	3	292	0.00	29.864 
20:00	77.0	77.0	78.6	49	56.4	1	5	292	0.00	29.865 
20:05	76.8	76.8	78.4	48	55.6	0	3	270	0.00	29.865 
20:10	76.7	76.7	78.4	49	56.1	0	1	292	0.00	29.865 
20:15	76.5	76.5	78.3	50	56.5	0	1	292	0.00	29.865 
20:20	76.1	76.1	78.1	50	56.1	0	1	292	0.00	29.865 
20:25	76.0	76.0	78.0	48	54.9	0	2	315	0.00	29.865 
20:30	75.8	75.8	78.0	48	54.7	0	3	315	0.00	29.869 
20:35	75.4	75.4	77.8	49	54.9	0	0	---	0.00	29.869 
20:40	75.1	75.1	77.7	49	54.6	0	1	315	0.00	29.869 
20:45	74.9	74.9	74.9	48	53.9	0	2	315	0.00	29.869 
20:50	74.7	74.7	74.7	49	54.3	0	1	315	0.00	29.869 
20:55	74.4	74.4	74.4	50	54.5	0	1	315	0.00	29.869 
21:00	74.0	74.0	74.0	50	54.2	0	1	315	0.00	29.871 
21:05	73.9	73.9	73.9	51	54.6	0	1	315	0.00	29.871 
21:10	73.5	73.5	73.5	52	54.8	0	0	---	0.00	29.871 
21:15	73.3	73.3	73.3	53	55.1	0	1	315	0.00	29.870 
21:20	73.0	73.0	73.0	54	55.4	0	1	315	0.00	29.870 
21:25	72.8	72.8	72.8	55	55.7	0	0	---	0.00	29.870 
21:30	72.3	72.3	72.3	56	55.7	0	0	---	0.00	29.870 
21:35	71.8	71.8	71.8	57	55.7	0	0	---	0.00	29.870 
21:40	71.6	71.6	71.6	58	56.0	0	0	---	0.00	29.870 
21:45	71.3	71.3	71.3	58	55.7	0	0	---	0.00	29.872 
21:50	70.9	70.9	70.9	59	55.8	0	0	---	0.00	29.872 
21:55	70.8	70.8	70.8	60	56.2	0	0	---	0.00	29.872 
22:00	70.4	70.4	70.4	61	56.3	0	0	---	0.00	29.883 
22:05	70.1	70.1	70.1	61	56.0	0	0	---	0.00	29.883 
22:10	69.8	69.8	69.8	62	56.2	0	0	---	0.00	29.883 
22:15	69.6	69.6	69.6	62	56.0	0	0	---	0.00	29.884 
22:20	69.3	69.3	69.3	63	56.2	0	0	---	0.00	29.884 
22:25	68.9	68.9	68.9	63	55.8	0	0	---	0.00	29.884 
22:30	68.6	68.6	68.6	64	55.9	0	0	---	0.00	29.887 
22:35	68.3	68.3	68.3	65	56.1	0	0	---	0.00	29.887 
22:40	67.8	67.8	67.8	66	56.0	0	0	---	0.00	29.887 
22:45	67.3	67.3	67.3	67	56.0	0	0	---	0.00	29.891 
22:50	67.3	67.3	67.3	67	56.0	0	0	---	0.00	29.891 
22:55	67.1	67.1	67.1	67	55.8	0	0	---	0.00	29.891 
23:00	67.1	67.1	67.1	67	55.8	0	0	---	0.00	29.888 
23:05	66.9	66.9	66.9	67	55.6	0	0	---	0.00	29.888 
23:10	66.8	66.8	66.8	67	55.5	0	0	---	0.00	29.888 
23:15	66.9	66.9	66.9	67	55.6	0	0	---	0.00	29.890 
23:20	67.3	67.3	67.3	66	55.5	0	0	---	0.00	29.890 
23:25	67.3	67.3	67.3	66	55.5	0	0	---	0.00	29.890 
23:30	67.3	67.3	67.3	65	55.1	0	1	315	0.00	29.887 
23:35	67.4	67.4	67.4	65	55.2	0	1	315	0.00	29.887 
23:40	67.4	67.4	67.4	65	55.2	0	1	315	0.00	29.887 
23:45	67.4	67.4	67.4	65	55.2	0	1	315	0.00	29.890 
23:50	67.4	67.4	67.4	64	54.8	0	1	315	0.00	29.890 
23:55	67.4	67.4	67.4	64	54.8	0	1	315	0.00	29.890 

CoCoRaHS
IN-AL-39
A2 Web Hosting
Creative Commons License
GoDaddy
Look for:

loaded 2017-12-10 21:38:38 • last modified 2010-11-18 10:43:29
Privacy PolicyDisclaimer
• wx.awcolley.com is powered by PmWiki v.2002016 •
• all content (unless otherwise noted) © 2017 A W Colley